Meadows Field Bakersfield US
ICAO: KBFL
IATA: BFL
Category: Medium
Scheduled Services: No

Elevation: 510 ft
TransAlt. 18000 ft.

Airport Communications:
BAKERSFIELD APP:118.8
ATIS:118.6
CTAF:118.1
BAKERSFIELD DEP:126.45
GND:121.7
RANCHO RDO:122.45
BAKERSFIELD TWR:118.1
UNICOM:122.95

KBFL Zoom In..

If you have problems with the map follow the link
https://www.worldairports.se/pages/airport.php?
ICAO=KBFL

Runways:

(A) RW 12L length 10855 ft width 150 ft
---- / hdg 121

(B) RW 12R length 7703 ft width 100 ft
---- / hdg 121

(C) RW 30L length 7703 ft width 100 ft
---- / hdg 301

(D) RW 30R length 10855 ft width 150 ft
ILS 111.90 / hdg 301

Location; KBFL
Day. 14 / Time. 16.15 Zulu
* Altimeter: 30.05
* Temperature: 13° c. 55.4°f.
* Wind from: 010° Speed 03 kn.
Dewpoint: 12° c.
Visibility: 1 m.
Clouds: Few 500 ft.
Clouds: Scattered 3200 ft.
Clouds: Broken 4700 ft.
Conditions: Mist.

KBFL 141615Z 01003KT 1 1/4SM BR FEW005 SCT032 BKN047 13/12 A3005 RMK AO2 TWR VIS 2 1/2 T01330117


Wind From 010°
Speed 03 kn.

 
 
jpsmedia worldairports.se 2019   terms of use